sensor_id;sensor_type;location;lat;lon;timestamp;pressure;altitude;pressure_sealevel;temperature;humidity
1832;BME280;1680;48.106;11.708;2023-01-27T00:00:53;95546.88;;;0.73;100.00
1832;BME280;1680;48.106;11.708;2023-01-27T00:03:22;95536.56;;;0.73;100.00
1832;BME280;1680;48.106;11.708;2023-01-27T00:05:50;95535.41;;;0.84;100.00
1832;BME280;1680;48.106;11.708;2023-01-27T00:08:20;95548.47;;;0.90;100.00
1832;BME280;1680;48.106;11.708;2023-01-27T00:10:47;95547.00;;;1.03;100.00
1832;BME280;1680;48.106;11.708;2023-01-27T00:13:34;95546.69;;;0.98;100.00
1832;BME280;1680;48.106;11.708;2023-01-27T00:16:01;95543.59;;;1.03;100.00
1832;BME280;1680;48.106;11.708;2023-01-27T00:18:28;95543.78;;;1.01;100.00
1832;BME280;1680;48.106;11.708;2023-01-27T00:20:56;95546.84;;;1.05;100.00
1832;BME280;1680;48.106;11.708;2023-01-27T00:23:42;95535.91;;;0.95;100.00
1832;BME280;1680;48.106;11.708;2023-01-27T00:26:27;95539.44;;;0.94;100.00
1832;BME280;1680;48.106;11.708;2023-01-27T00:28:54;95530.72;;;0.95;100.00
1832;BME280;1680;48.106;11.708;2023-01-27T00:31:21;95532.66;;;0.93;100.00
1832;BME280;1680;48.106;11.708;2023-01-27T00:34:06;95540.41;;;0.93;100.00
1832;BME280;1680;48.106;11.708;2023-01-27T00:36:38;95534.28;;;0.94;100.00
1832;BME280;1680;48.106;11.708;2023-01-27T00:39:08;95528.63;;;0.91;100.00
1832;BME280;1680;48.106;11.708;2023-01-27T00:41:36;95522.63;;;0.98;100.00
1832;BME280;1680;48.106;11.708;2023-01-27T00:44:05;95519.72;;;1.01;100.00
1832;BME280;1680;48.106;11.708;2023-01-27T00:46:37;95468.53;;;0.58;100.00
1832;BME280;1680;48.106;11.708;2023-01-27T00:49:04;95526.84;;;0.99;100.00
1832;BME280;1680;48.106;11.708;2023-01-27T00:51:31;95528.75;;;1.05;100.00
1832;BME280;1680;48.106;11.708;2023-01-27T00:53:58;95549.44;;;0.97;100.00
1832;BME280;1680;48.106;11.708;2023-01-27T00:56:29;95538.16;;;0.90;100.00
1832;BME280;1680;48.106;11.708;2023-01-27T00:58:56;95535.41;;;0.92;100.00
1832;BME280;1680;48.106;11.708;2023-01-27T01:01:23;95478.84;;;0.42;100.00
1832;BME280;1680;48.106;11.708;2023-01-27T01:03:51;95532.19;;;0.82;100.00
1832;BME280;1680;48.106;11.708;2023-01-27T01:06:19;95548.47;;;0.90;100.00
1832;BME280;1680;48.106;11.708;2023-01-27T01:08:46;95548.63;;;0.96;100.00
1832;BME280;1680;48.106;11.708;2023-01-27T01:11:16;95545.72;;;0.92;100.00
1832;BME280;1680;48.106;11.708;2023-01-27T01:13:46;95537.81;;;0.85;100.00
1832;BME280;1680;48.106;11.708;2023-01-27T01:16:15;95554.94;;;0.94;100.00
1832;BME280;1680;48.106;11.708;2023-01-27T01:18:43;95549.94;;;0.85;100.00
1832;BME280;1680;48.106;11.708;2023-01-27T01:21:10;95547.50;;;0.83;100.00
1832;BME280;1680;48.106;11.708;2023-01-27T01:23:39;95544.59;;;0.94;100.00
1832;BME280;1680;48.106;11.708;2023-01-27T01:26:09;95546.22;;;0.95;100.00
1832;BME280;1680;48.106;11.708;2023-01-27T01:28:37;95523.66;;;0.73;100.00
1832;BME280;1680;48.106;11.708;2023-01-27T01:31:07;95542.69;;;0.80;100.00
1832;BME280;1680;48.106;11.708;2023-01-27T01:33:35;95559.09;;;1.11;100.00
1832;BME280;1680;48.106;11.708;2023-01-27T01:36:06;95554.28;;;0.92;100.00
1832;BME280;1680;48.106;11.708;2023-01-27T01:38:33;95551.38;;;0.95;100.00
1832;BME280;1680;48.106;11.708;2023-01-27T01:41:01;95548.00;;;0.87;100.00
1832;BME280;1680;48.106;11.708;2023-01-27T01:43:29;95546.38;;;0.86;100.00
1832;BME280;1680;48.106;11.708;2023-01-27T01:45:57;95522.69;;;0.74;100.00
1832;BME280;1680;48.106;11.708;2023-01-27T01:48:31;95537.03;;;0.85;100.00
1832;BME280;1680;48.106;11.708;2023-01-27T01:51:04;95532.66;;;0.93;100.00
1832;BME280;1680;48.106;11.708;2023-01-27T01:53:37;95526.22;;;0.89;100.00
1832;BME280;1680;48.106;11.708;2023-01-27T01:56:11;95518.31;;;0.83;100.00
1832;BME280;1680;48.106;11.708;2023-01-27T01:58:40;95515.56;;;0.84;100.00
1832;BME280;1680;48.106;11.708;2023-01-27T02:01:08;95478.84;;;0.42;100.00
1832;BME280;1680;48.106;11.708;2023-01-27T02:03:39;95538.84;;;0.52;100.00
1832;BME280;1680;48.106;11.708;2023-01-27T02:06:09;95541.56;;;0.51;100.00
1832;BME280;1680;48.106;11.708;2023-01-27T02:08:39;95524.47;;;0.66;100.00
1832;BME280;1680;48.106;11.708;2023-01-27T02:11:08;95519.47;;;0.72;100.00
1832;BME280;1680;48.106;11.708;2023-01-27T02:13:36;95510.28;;;0.54;100.00
1832;BME280;1680;48.106;11.708;2023-01-27T02:16:04;95519.97;;;0.52;100.00
1832;BME280;1680;48.106;11.708;2023-01-27T02:18:32;95516.91;;;0.64;100.00
1832;BME280;1680;48.106;11.708;2023-01-27T02:21:02;95523.16;;;0.62;100.00
1832;BME280;1680;48.106;11.708;2023-01-27T02:23:41;95528.81;;;0.73;100.00
1832;BME280;1680;48.106;11.708;2023-01-27T02:26:16;95526.91;;;0.51;100.00
1832;BME280;1680;48.106;11.708;2023-01-27T02:28:45;95528.66;;;0.67;100.00
1832;BME280;1680;48.106;11.708;2023-01-27T02:31:17;95525.28;;;0.66;100.00
1832;BME280;1680;48.106;11.708;2023-01-27T02:33:45;95524.31;;;0.59;100.00
1832;BME280;1680;48.106;11.708;2023-01-27T02:36:14;95527.53;;;0.61;100.00
1832;BME280;1680;48.106;11.708;2023-01-27T02:38:45;95514.97;;;0.58;100.00
1832;BME280;1680;48.106;11.708;2023-01-27T02:41:18;95508.53;;;0.46;100.00
1832;BME280;1680;48.106;11.708;2023-01-27T02:43:47;95521.75;;;0.67;100.00
1832;BME280;1680;48.106;11.708;2023-01-27T02:46:15;95529.13;;;0.78;100.00
1832;BME280;1680;48.106;11.708;2023-01-27T02:48:42;95522.03;;;0.80;100.00
1832;BME280;1680;48.106;11.708;2023-01-27T02:51:10;95515.75;;;0.83;100.00
1832;BME280;1680;48.106;11.708;2023-01-27T02:53:37;95514.31;;;0.80;100.00
1832;BME280;1680;48.106;11.708;2023-01-27T02:56:05;95520.44;;;0.71;100.00
1832;BME280;1680;48.106;11.708;2023-01-27T02:58:34;95521.91;;;0.74;100.00
1832;BME280;1680;48.106;11.708;2023-01-27T03:01:01;95522.34;;;0.69;100.00
1832;BME280;1680;48.106;11.708;2023-01-27T03:03:28;95509.31;;;0.71;100.00
1832;BME280;1680;48.106;11.708;2023-01-27T03:05:55;95518.34;;;0.75;100.00
1832;BME280;1680;48.106;11.708;2023-01-27T03:08:22;95515.59;;;0.76;100.00
1832;BME280;1680;48.106;11.708;2023-01-27T03:10:50;95510.09;;;0.79;100.00
1832;BME280;1680;48.106;11.708;2023-01-27T03:13:20;95512.69;;;0.79;100.00
1832;BME280;1680;48.106;11.708;2023-01-27T03:15:49;95514.63;;;0.69;100.00
1832;BME280;1680;48.106;11.708;2023-01-27T03:18:34;95513.66;;;0.78;100.00
1832;BME280;1680;48.106;11.708;2023-01-27T03:21:04;95518.84;;;0.62;100.00
1832;BME280;1680;48.106;11.708;2023-01-27T03:23:32;95515.25;;;0.71;100.00
1832;BME280;1680;48.106;11.708;2023-01-27T03:26:00;95517.34;;;0.76;100.00
1832;BME280;1680;48.106;11.708;2023-01-27T03:28:27;95522.19;;;0.63;100.00
1832;BME280;1680;48.106;11.708;2023-01-27T03:30:59;95520.25;;;0.81;100.00
1832;BME280;1680;48.106;11.708;2023-01-27T03:33:27;95513.66;;;0.78;100.00
1832;BME280;1680;48.106;11.708;2023-01-27T03:35:55;95499.94;;;0.86;100.00
1832;BME280;1680;48.106;11.708;2023-01-27T03:38:40;95513.50;;;0.72;100.00
1832;BME280;1680;48.106;11.708;2023-01-27T03:41:25;95503.69;;;0.67;100.00
1832;BME280;1680;48.106;11.708;2023-01-27T03:44:10;95499.13;;;0.69;100.00
1832;BME280;1680;48.106;11.708;2023-01-27T03:46:56;95501.25;;;0.58;100.00
1832;BME280;1680;48.106;11.708;2023-01-27T03:49:23;95499.63;;;0.65;100.00
1832;BME280;1680;48.106;11.708;2023-01-27T03:51:51;95501.59;;;0.55;100.00
1832;BME280;1680;48.106;11.708;2023-01-27T03:54:18;95497.22;;;0.55;100.00
1832;BME280;1680;48.106;11.708;2023-01-27T03:56:45;95497.88;;;0.49;100.00
1832;BME280;1680;48.106;11.708;2023-01-27T03:59:13;95500.13;;;0.44;100.00
1832;BME280;1680;48.106;11.708;2023-01-27T04:01:40;95506.91;;;0.61;100.00
1832;BME280;1680;48.106;11.708;2023-01-27T04:04:10;95508.03;;;0.59;100.00
1832;BME280;1680;48.106;11.708;2023-01-27T04:06:55;95504.00;;;0.48;100.00
1832;BME280;1680;48.106;11.708;2023-01-27T04:09:27;95495.59;;;0.54;100.00
1832;BME280;1680;48.106;11.708;2023-01-27T04:11:55;95500.44;;;0.57;100.00
1832;BME280;1680;48.106;11.708;2023-01-27T04:14:28;95500.13;;;0.28;100.00
1832;BME280;1680;48.106;11.708;2023-01-27T04:17:00;95505.31;;;0.52;100.00
1832;BME280;1680;48.106;11.708;2023-01-27T04:19:29;95499.81;;;0.31;100.00
1832;BME280;1680;48.106;11.708;2023-01-27T04:21:57;95511.09;;;0.30;100.00
1832;BME280;1680;48.106;11.708;2023-01-27T04:24:25;95513.84;;;0.53;100.00
1832;BME280;1680;48.106;11.708;2023-01-27T04:26:54;95517.19;;;0.53;100.00
1832;BME280;1680;48.106;11.708;2023-01-27T04:29:24;95517.84;;;0.71;100.00
1832;BME280;1680;48.106;11.708;2023-01-27T04:31:52;95453.41;;;0.31;100.00
1832;BME280;1680;48.106;11.708;2023-01-27T04:34:20;95513.19;;;0.75;100.00
1832;BME280;1680;48.106;11.708;2023-01-27T04:36:48;95508.03;;;0.75;100.00
1832;BME280;1680;48.106;11.708;2023-01-27T04:39:17;95496.91;;;0.58;100.00
1832;BME280;1680;48.106;11.708;2023-01-27T04:41:45;95500.13;;;0.60;100.00
1832;BME280;1680;48.106;11.708;2023-01-27T04:44:13;95517.06;;;0.71;100.00
1832;BME280;1680;48.106;11.708;2023-01-27T04:46:40;95515.59;;;0.76;100.00
1832;BME280;1680;48.106;11.708;2023-01-27T04:49:07;95513.00;;;0.68;100.00
1832;BME280;1680;48.106;11.708;2023-01-27T04:51:35;95517.84;;;0.55;100.00
1832;BME280;1680;48.106;11.708;2023-01-27T04:54:04;95516.41;;;0.61;100.00
1832;BME280;1680;48.106;11.708;2023-01-27T04:56:33;95517.03;;;0.79;100.00
1832;BME280;1680;48.106;11.708;2023-01-27T04:59:03;95515.94;;;0.65;100.00
1832;BME280;1680;48.106;11.708;2023-01-27T05:01:31;95518.19;;;0.60;100.00
1832;BME280;1680;48.106;11.708;2023-01-27T05:03:58;95510.44;;;0.44;100.00
1832;BME280;1680;48.106;11.708;2023-01-27T05:06:26;95513.50;;;0.64;100.00
1832;BME280;1680;48.106;11.708;2023-01-27T05:08:54;95509.47;;;0.53;100.00
1832;BME280;1680;48.106;11.708;2023-01-27T05:11:22;95511.72;;;0.40;100.00
1832;BME280;1680;48.106;11.708;2023-01-27T05:13:50;95519.81;;;0.37;100.00
1832;BME280;1680;48.106;11.708;2023-01-27T05:16:18;95515.59;;;0.44;100.00
1832;BME280;1680;48.106;11.708;2023-01-27T05:18:47;95522.06;;;0.48;100.00
1832;BME280;1680;48.106;11.708;2023-01-27T05:21:16;95521.22;;;0.32;100.00
1832;BME280;1680;48.106;11.708;2023-01-27T05:23:44;95521.25;;;0.40;100.00
1832;BME280;1680;48.106;11.708;2023-01-27T05:26:12;95515.28;;;0.39;100.00
1832;BME280;1680;48.106;11.708;2023-01-27T05:28:43;95494.03;;;0.21;100.00
1832;BME280;1680;48.106;11.708;2023-01-27T05:31:12;95527.53;;;0.45;100.00
1832;BME280;1680;48.106;11.708;2023-01-27T05:33:40;95528.34;;;0.46;100.00
1832;BME280;1680;48.106;11.708;2023-01-27T05:36:10;95520.78;;;0.52;100.00
1832;BME280;1680;48.106;11.708;2023-01-27T05:38:38;95542.19;;;0.61;100.00
1832;BME280;1680;48.106;11.708;2023-01-27T05:41:07;95536.88;;;0.70;100.00
1832;BME280;1680;48.106;11.708;2023-01-27T05:43:36;95544.22;;;1.21;100.00
1832;BME280;1680;48.106;11.708;2023-01-27T05:46:07;95546.41;;;1.48;100.00
1832;BME280;1680;48.106;11.708;2023-01-27T05:48:36;95543.06;;;1.31;100.00
1832;BME280;1680;48.106;11.708;2023-01-27T05:51:05;95546.47;;;1.16;100.00
1832;BME280;1680;48.106;11.708;2023-01-27T05:53:32;95548.94;;;1.01;100.00
1832;BME280;1680;48.106;11.708;2023-01-27T05:56:01;95553.97;;;0.95;100.00
1832;BME280;1680;48.106;11.708;2023-01-27T05:58:28;95555.56;;;0.88;100.00
1832;BME280;1680;48.106;11.708;2023-01-27T06:00:55;95555.59;;;0.80;100.00
1832;BME280;1680;48.106;11.708;2023-01-27T06:03:24;95560.09;;;0.86;100.00
1832;BME280;1680;48.106;11.708;2023-01-27T06:05:53;95558.47;;;0.93;100.00
1832;BME280;1680;48.106;11.708;2023-01-27T06:08:21;95559.44;;;0.92;100.00
1832;BME280;1680;48.106;11.708;2023-01-27T06:10:49;95561.03;;;1.01;100.00
1832;BME280;1680;48.106;11.708;2023-01-27T06:13:16;95563.31;;;0.96;100.00
1832;BME280;1680;48.106;11.708;2023-01-27T06:15:45;95569.28;;;0.96;100.00
1832;BME280;1680;48.106;11.708;2023-01-27T06:18:14;95555.41;;;0.82;100.00
1832;BME280;1680;48.106;11.708;2023-01-27T06:20:43;95574.28;;;0.90;100.00
1832;BME280;1680;48.106;11.708;2023-01-27T06:23:13;95564.94;;;0.81;100.00
1832;BME280;1680;48.106;11.708;2023-01-27T06:25:43;95570.59;;;0.85;100.00
1832;BME280;1680;48.106;11.708;2023-01-27T06:28:11;95569.38;;;1.35;100.00
1832;BME280;1680;48.106;11.708;2023-01-27T06:30:39;95461.63;;;0.35;100.00
1832;BME280;1680;48.106;11.708;2023-01-27T06:33:07;95576.22;;;1.04;100.00
1832;BME280;1680;48.106;11.708;2023-01-27T06:35:35;95563.31;;;0.88;100.00
1832;BME280;1680;48.106;11.708;2023-01-27T06:38:07;95580.44;;;0.97;100.00
1832;BME280;1680;48.106;11.708;2023-01-27T06:40:35;95585.88;;;1.02;100.00
1832;BME280;1680;48.106;11.708;2023-01-27T06:43:02;95588.50;;;0.94;100.00
1832;BME280;1680;48.106;11.708;2023-01-27T06:45:29;95598.16;;;0.92;100.00
1832;BME280;1680;48.106;11.708;2023-01-27T06:47:59;95592.84;;;0.86;100.00
1832;BME280;1680;48.106;11.708;2023-01-27T06:50:28;95595.25;;;0.95;100.00
1832;BME280;1680;48.106;11.708;2023-01-27T06:52:59;95601.06;;;0.65;100.00
1832;BME280;1680;48.106;11.708;2023-01-27T06:55:28;95597.03;;;0.79;100.00
1832;BME280;1680;48.106;11.708;2023-01-27T06:57:55;95606.88;;;0.75;100.00
1832;BME280;1680;48.106;11.708;2023-01-27T07:00:22;95605.72;;;0.78;100.00
1832;BME280;1680;48.106;11.708;2023-01-27T07:02:49;95600.91;;;0.83;100.00
1832;BME280;1680;48.106;11.708;2023-01-27T07:05:18;95605.44;;;0.73;100.00
1832;BME280;1680;48.106;11.708;2023-01-27T07:07:46;95594.78;;;0.68;100.00
1832;BME280;1680;48.106;11.708;2023-01-27T07:10:13;95595.41;;;0.78;100.00
1832;BME280;1680;48.106;11.708;2023-01-27T07:12:41;95595.25;;;0.87;100.00
1832;BME280;1680;48.106;11.708;2023-01-27T07:15:09;95590.91;;;0.88;100.00
1832;BME280;1680;48.106;11.708;2023-01-27T07:17:37;95593.31;;;0.89;100.00
1832;BME280;1680;48.106;11.708;2023-01-27T07:20:06;95596.22;;;0.78;100.00
1832;BME280;1680;48.106;11.708;2023-01-27T07:22:34;95583.97;;;0.80;100.00
1832;BME280;1680;48.106;11.708;2023-01-27T07:25:02;95590.75;;;0.81;100.00
1832;BME280;1680;48.106;11.708;2023-01-27T07:27:30;95584.59;;;0.90;100.00
1832;BME280;1680;48.106;11.708;2023-01-27T07:29:59;95591.88;;;0.94;100.00
1832;BME280;1680;48.106;11.708;2023-01-27T07:32:26;95589.78;;;0.82;100.00
1832;BME280;1680;48.106;11.708;2023-01-27T07:34:54;95595.56;;;0.84;100.00
1832;BME280;1680;48.106;11.708;2023-01-27T07:37:21;95591.22;;;0.85;100.00
1832;BME280;1680;48.106;11.708;2023-01-27T07:39:48;95601.09;;;0.81;100.00
1832;BME280;1680;48.106;11.708;2023-01-27T07:42:16;95598.63;;;0.64;100.00
1832;BME280;1680;48.106;11.708;2023-01-27T07:44:43;95591.22;;;0.53;100.00
1832;BME280;1680;48.106;11.708;2023-01-27T07:47:11;95596.72;;;0.66;100.00
1832;BME280;1680;48.106;11.708;2023-01-27T07:49:39;95592.38;;;0.82;100.00
1832;BME280;1680;48.106;11.708;2023-01-27T07:52:06;95595.44;;;0.86;100.00
1832;BME280;1680;48.106;11.708;2023-01-27T07:54:33;95595.41;;;1.01;100.00
1832;BME280;1680;48.106;11.708;2023-01-27T07:57:00;95596.84;;;1.04;100.00
1832;BME280;1680;48.106;11.708;2023-01-27T07:59:28;95598.16;;;1.08;100.00
1832;BME280;1680;48.106;11.708;2023-01-27T08:01:55;95595.88;;;1.13;100.00
1832;BME280;1680;48.106;11.708;2023-01-27T08:04:24;95600.72;;;1.16;100.00
1832;BME280;1680;48.106;11.708;2023-01-27T08:06:51;95600.41;;;1.11;100.00
1832;BME280;1680;48.106;11.708;2023-01-27T08:09:18;95597.63;;;1.20;100.00
1832;BME280;1680;48.106;11.708;2023-01-27T08:11:46;95602.66;;;1.14;100.00
1832;BME280;1680;48.106;11.708;2023-01-27T08:14:13;95607.97;;;1.20;100.00
1832;BME280;1680;48.106;11.708;2023-01-27T08:16:40;95607.47;;;1.33;100.00
1832;BME280;1680;48.106;11.708;2023-01-27T08:19:08;95611.34;;;1.29;100.00
1832;BME280;1680;48.106;11.708;2023-01-27T08:21:36;95601.97;;;1.36;100.00
1832;BME280;1680;48.106;11.708;2023-01-27T08:24:04;95609.28;;;1.16;100.00
1832;BME280;1680;48.106;11.708;2023-01-27T08:26:31;95606.03;;;1.30;100.00
1832;BME280;1680;48.106;11.708;2023-01-27T08:28:58;95609.09;;;1.18;100.00
1832;BME280;1680;48.106;11.708;2023-01-27T08:31:25;95607.78;;;1.30;100.00
1832;BME280;1680;48.106;11.708;2023-01-27T08:33:53;95611.69;;;1.26;100.00
1832;BME280;1680;48.106;11.708;2023-01-27T08:36:22;95616.50;;;1.29;100.00
1832;BME280;1680;48.106;11.708;2023-01-27T08:38:51;95617.19;;;1.23;100.00
1832;BME280;1680;48.106;11.708;2023-01-27T08:41:21;95624.75;;;1.24;100.00
1832;BME280;1680;48.106;11.708;2023-01-27T08:43:48;95628.94;;;1.33;100.00
1832;BME280;1680;48.106;11.708;2023-01-27T08:46:16;95626.03;;;1.28;100.00
1832;BME280;1680;48.106;11.708;2023-01-27T08:48:43;95634.25;;;1.32;100.00
1832;BME280;1680;48.106;11.708;2023-01-27T08:51:12;95640.06;;;1.34;100.00
1832;BME280;1680;48.106;11.708;2023-01-27T08:53:40;95641.72;;;1.19;100.00
1832;BME280;1680;48.106;11.708;2023-01-27T08:56:10;95640.56;;;1.21;100.00
1832;BME280;1680;48.106;11.708;2023-01-27T08:58:38;95642.47;;;1.35;100.00
1832;BME280;1680;48.106;11.708;2023-01-27T09:01:06;95640.41;;;1.31;100.00
1832;BME280;1680;48.106;11.708;2023-01-27T09:03:34;95642.03;;;1.24;100.00
1832;BME280;1680;48.106;11.708;2023-01-27T09:06:02;95643.16;;;1.21;100.00
1832;BME280;1680;48.106;11.708;2023-01-27T09:08:29;95636.53;;;1.19;100.00
1832;BME280;1680;48.106;11.708;2023-01-27T09:10:57;95627.50;;;1.23;100.00
1832;BME280;1680;48.106;11.708;2023-01-27T09:13:26;95634.13;;;1.33;100.00
1832;BME280;1680;48.106;11.708;2023-01-27T09:15:53;95632.31;;;1.34;100.00
1832;BME280;1680;48.106;11.708;2023-01-27T09:18:20;95635.06;;;1.40;100.00
1832;BME280;1680;48.106;11.708;2023-01-27T09:20:48;95636.97;;;2.39;100.00
1832;BME280;1680;48.106;11.708;2023-01-27T09:23:15;95644.63;;;1.94;100.00
1832;BME280;1680;48.106;11.708;2023-01-27T09:25:42;95630.78;;;1.79;100.00
1832;BME280;1680;48.106;11.708;2023-01-27T09:28:09;95635.00;;;1.72;100.00
1832;BME280;1680;48.106;11.708;2023-01-27T09:30:43;95645.66;;;1.69;100.00
1832;BME280;1680;48.106;11.708;2023-01-27T09:33:11;95649.06;;;1.62;100.00
1832;BME280;1680;48.106;11.708;2023-01-27T09:35:42;95639.53;;;1.62;100.00
1832;BME280;1680;48.106;11.708;2023-01-27T09:38:13;95655.41;;;1.43;100.00
1832;BME280;1680;48.106;11.708;2023-01-27T09:41:01;95664.13;;;1.42;100.00
1832;BME280;1680;48.106;11.708;2023-01-27T09:44:15;95654.69;;;1.65;100.00
1832;BME280;1680;48.106;11.708;2023-01-27T09:47:11;95660.66;;;1.74;100.00
1832;BME280;1680;48.106;11.708;2023-01-27T09:49:54;95650.69;;;1.63;100.00
1832;BME280;1680;48.106;11.708;2023-01-27T09:52:36;95653.03;;;1.80;100.00
1832;BME280;1680;48.106;11.708;2023-01-27T09:55:11;95655.47;;;1.82;100.00
1832;BME280;1680;48.106;11.708;2023-01-27T09:57:50;95652.38;;;1.86;100.00
1832;BME280;1680;48.106;11.708;2023-01-27T10:00:27;95652.97;;;2.04;100.00
1832;BME280;1680;48.106;11.708;2023-01-27T10:03:23;95666.75;;;1.96;100.00
1832;BME280;1680;48.106;11.708;2023-01-27T10:06:09;95663.47;;;2.02;100.00
1832;BME280;1680;48.106;11.708;2023-01-27T10:09:21;95657.19;;;2.05;100.00
1832;BME280;1680;48.106;11.708;2023-01-27T10:12:00;95658.31;;;2.02;100.00
1832;BME280;1680;48.106;11.708;2023-01-27T10:14:37;95669.41;;;2.19;100.00
1832;BME280;1680;48.106;11.708;2023-01-27T10:17:21;95659.59;;;2.06;100.00
1832;BME280;1680;48.106;11.708;2023-01-27T10:20:06;95654.81;;;1.88;100.00
1832;BME280;1680;48.106;11.708;2023-01-27T10:22:43;95660.31;;;1.85;100.00
1832;BME280;1680;48.106;11.708;2023-01-27T10:25:21;95655.44;;;1.97;100.00
1832;BME280;1680;48.106;11.708;2023-01-27T10:27:55;95653.81;;;1.96;100.00
1832;BME280;1680;48.106;11.708;2023-01-27T10:30:29;95661.53;;;2.04;100.00
1832;BME280;1680;48.106;11.708;2023-01-27T10:33:06;95661.09;;;1.93;100.00
1832;BME280;1680;48.106;11.708;2023-01-27T10:35:46;95663.47;;;2.02;100.00
1832;BME280;1680;48.106;11.708;2023-01-27T10:38:23;95631.84;;;1.92;100.00
1832;BME280;1680;48.106;11.708;2023-01-27T10:40:59;95657.69;;;1.92;99.50
1832;BME280;1680;48.106;11.708;2023-01-27T10:43:37;95668.66;;;2.02;100.00
1832;BME280;1680;48.106;11.708;2023-01-27T10:46:15;95673.16;;;2.08;100.00
1832;BME280;1680;48.106;11.708;2023-01-27T10:48:50;95671.34;;;2.17;100.00
1832;BME280;1680;48.106;11.708;2023-01-27T10:51:24;95668.75;;;2.17;100.00
1832;BME280;1680;48.106;11.708;2023-01-27T10:53:55;95658.59;;;2.15;99.57
1832;BME280;1680;48.106;11.708;2023-01-27T10:56:30;95672.78;;;2.19;100.00
1832;BME280;1680;48.106;11.708;2023-01-27T10:59:04;95678.94;;;2.18;99.00
1832;BME280;1680;48.106;11.708;2023-01-27T11:01:38;95667.22;;;2.38;96.02
1832;BME280;1680;48.106;11.708;2023-01-27T11:04:13;95676.47;;;2.25;97.38
1832;BME280;1680;48.106;11.708;2023-01-27T11:06:44;95670.84;;;2.21;97.12
1832;BME280;1680;48.106;11.708;2023-01-27T11:09:18;95671.84;;;2.12;97.28
1832;BME280;1680;48.106;11.708;2023-01-27T11:11:51;95673.81;;;2.02;98.53
1832;BME280;1680;48.106;11.708;2023-01-27T11:14:27;95658.72;;;1.84;100.00
1832;BME280;1680;48.106;11.708;2023-01-27T11:16:59;95658.34;;;1.94;99.56
1832;BME280;1680;48.106;11.708;2023-01-27T11:19:37;95662.09;;;1.92;99.28
1832;BME280;1680;48.106;11.708;2023-01-27T11:22:17;95658.84;;;1.90;99.86
1832;BME280;1680;48.106;11.708;2023-01-27T11:24:48;95652.84;;;1.89;100.00
1832;BME280;1680;48.106;11.708;2023-01-27T11:27:31;95657.78;;;1.61;100.00
1832;BME280;1680;48.106;11.708;2023-01-27T11:30:02;95662.97;;;1.53;100.00
1832;BME280;1680;48.106;11.708;2023-01-27T11:32:43;95658.75;;;1.60;100.00
1832;BME280;1680;48.106;11.708;2023-01-27T11:35:14;95656.44;;;1.81;100.00
1832;BME280;1680;48.106;11.708;2023-01-27T11:37:44;95651.50;;;1.55;100.00
1832;BME280;1680;48.106;11.708;2023-01-27T11:40:15;95651.94;;;1.75;100.00
1832;BME280;1680;48.106;11.708;2023-01-27T11:42:44;95654.16;;;1.93;100.00
1832;BME280;1680;48.106;11.708;2023-01-27T11:45:16;95652.50;;;2.00;99.83
1832;BME280;1680;48.106;11.708;2023-01-27T11:47:46;95651.22;;;1.96;100.00
1832;BME280;1680;48.106;11.708;2023-01-27T11:50:17;95647.75;;;2.12;99.90
1832;BME280;1680;48.106;11.708;2023-01-27T11:52:48;95652.19;;;1.95;99.22
1832;BME280;1680;48.106;11.708;2023-01-27T11:55:19;95656.88;;;2.00;100.00
1832;BME280;1680;48.106;11.708;2023-01-27T11:57:54;95649.09;;;2.00;100.00
1832;BME280;1680;48.106;11.708;2023-01-27T12:00:24;95656.84;;;2.08;100.00
1832;BME280;1680;48.106;11.708;2023-01-27T12:03:00;95620.63;;;1.62;99.89
1832;BME280;1680;48.106;11.708;2023-01-27T12:05:30;95639.06;;;1.59;100.00
1832;BME280;1680;48.106;11.708;2023-01-27T12:08:03;95642.09;;;1.78;100.00
1832;BME280;1680;48.106;11.708;2023-01-27T12:10:32;95644.88;;;1.61;100.00
1832;BME280;1680;48.106;11.708;2023-01-27T12:13:07;95623.28;;;1.30;100.00
1832;BME280;1680;48.106;11.708;2023-01-27T12:15:35;95652.94;;;1.66;100.00
1832;BME280;1680;48.106;11.708;2023-01-27T12:18:11;95645.59;;;1.93;100.00
1832;BME280;1680;48.106;11.708;2023-01-27T12:20:40;95646.91;;;2.19;100.00
1832;BME280;1680;48.106;11.708;2023-01-27T12:23:20;95649.16;;;2.30;98.77
1832;BME280;1680;48.106;11.708;2023-01-27T12:25:52;95644.22;;;2.43;97.16
1832;BME280;1680;48.106;11.708;2023-01-27T12:28:25;95639.31;;;2.48;97.47
1832;BME280;1680;48.106;11.708;2023-01-27T12:30:56;95642.69;;;2.57;96.07
1832;BME280;1680;48.106;11.708;2023-01-27T12:33:30;95641.56;;;2.59;95.53
1832;BME280;1680;48.106;11.708;2023-01-27T12:35:59;95630.22;;;2.60;95.70
1832;BME280;1680;48.106;11.708;2023-01-27T12:38:33;95636.38;;;2.59;95.59
1832;BME280;1680;48.106;11.708;2023-01-27T12:41:03;95633.38;;;2.48;93.71
1832;BME280;1680;48.106;11.708;2023-01-27T12:43:31;95629.03;;;2.40;92.60
1832;BME280;1680;48.106;11.708;2023-01-27T12:46:16;95646.56;;;2.30;93.87
1832;BME280;1680;48.106;11.708;2023-01-27T12:48:46;95630.75;;;2.25;94.98
1832;BME280;1680;48.106;11.708;2023-01-27T12:51:18;95525.72;;;1.56;95.82
1832;BME280;1680;48.106;11.708;2023-01-27T12:53:49;95641.09;;;2.17;95.24
1832;BME280;1680;48.106;11.708;2023-01-27T12:56:18;95633.91;;;2.35;95.54
1832;BME280;1680;48.106;11.708;2023-01-27T12:58:56;95635.13;;;2.47;97.29
1832;BME280;1680;48.106;11.708;2023-01-27T13:01:28;95641.09;;;2.78;99.59
1832;BME280;1680;48.106;11.708;2023-01-27T13:03:58;95618.53;;;2.86;97.12
1832;BME280;1680;48.106;11.708;2023-01-27T13:06:33;95635.63;;;2.95;91.12
1832;BME280;1680;48.106;11.708;2023-01-27T13:09:05;95630.00;;;3.14;100.00
1832;BME280;1680;48.106;11.708;2023-01-27T13:11:38;95619.22;;;3.03;95.66
1832;BME280;1680;48.106;11.708;2023-01-27T13:14:07;95624.41;;;3.03;92.41
1832;BME280;1680;48.106;11.708;2023-01-27T13:16:39;95611.75;;;2.63;92.59
1832;BME280;1680;48.106;11.708;2023-01-27T13:19:15;95612.97;;;2.53;93.15
1832;BME280;1680;48.106;11.708;2023-01-27T13:21:45;95618.19;;;2.67;94.46
1832;BME280;1680;48.106;11.708;2023-01-27T13:24:19;95621.28;;;2.40;93.08
1832;BME280;1680;48.106;11.708;2023-01-27T13:26:51;95513.19;;;1.67;94.48
1832;BME280;1680;48.106;11.708;2023-01-27T13:29:24;95627.56;;;2.46;94.94
1832;BME280;1680;48.106;11.708;2023-01-27T13:31:56;95625.78;;;2.46;95.94